sensor_id;sensor_type;location;lat;lon;timestamp;P1;durP1;ratioP1;P2;durP2;ratioP2
4921;SDS011;16625;53.624;10.106;2023-04-25T00:01:10;7.70;;;4.60;;
4921;SDS011;16625;53.624;10.106;2023-04-25T00:03:40;7.07;;;4.70;;
4921;SDS011;16625;53.624;10.106;2023-04-25T00:06:09;5.87;;;5.13;;
4921;SDS011;16625;53.624;10.106;2023-04-25T00:08:45;10.00;;;5.43;;
4921;SDS011;16625;53.624;10.106;2023-04-25T00:11:16;5.43;;;4.70;;
4921;SDS011;16625;53.624;10.106;2023-04-25T00:13:45;6.57;;;5.17;;
4921;SDS011;16625;53.624;10.106;2023-04-25T00:16:14;19.33;;;5.67;;
4921;SDS011;16625;53.624;10.106;2023-04-25T00:18:43;8.40;;;4.53;;
4921;SDS011;16625;53.624;10.106;2023-04-25T00:21:16;9.10;;;5.40;;
4921;SDS011;16625;53.624;10.106;2023-04-25T00:23:44;20.67;;;5.10;;
4921;SDS011;16625;53.624;10.106;2023-04-25T00:26:12;14.70;;;6.10;;
4921;SDS011;16625;53.624;10.106;2023-04-25T00:28:39;16.13;;;6.10;;
4921;SDS011;16625;53.624;10.106;2023-04-25T00:31:08;15.07;;;5.13;;
4921;SDS011;16625;53.624;10.106;2023-04-25T00:33:35;14.40;;;4.53;;
4921;SDS011;16625;53.624;10.106;2023-04-25T00:36:03;12.40;;;4.23;;
4921;SDS011;16625;53.624;10.106;2023-04-25T00:38:33;13.27;;;3.57;;
4921;SDS011;16625;53.624;10.106;2023-04-25T00:41:05;28.37;;;5.00;;
4921;SDS011;16625;53.624;10.106;2023-04-25T00:43:36;14.80;;;4.67;;
4921;SDS011;16625;53.624;10.106;2023-04-25T00:46:15;19.57;;;5.40;;
4921;SDS011;16625;53.624;10.106;2023-04-25T00:48:50;21.77;;;4.90;;
4921;SDS011;16625;53.624;10.106;2023-04-25T00:51:21;16.87;;;3.83;;
4921;SDS011;16625;53.624;10.106;2023-04-25T00:53:53;12.10;;;5.63;;
4921;SDS011;16625;53.624;10.106;2023-04-25T00:56:22;17.03;;;4.70;;
4921;SDS011;16625;53.624;10.106;2023-04-25T00:59:03;22.63;;;5.60;;
4921;SDS011;16625;53.624;10.106;2023-04-25T01:01:36;14.13;;;4.33;;
4921;SDS011;16625;53.624;10.106;2023-04-25T01:04:04;14.17;;;4.30;;
4921;SDS011;16625;53.624;10.106;2023-04-25T01:06:47;18.27;;;4.50;;
4921;SDS011;16625;53.624;10.106;2023-04-25T01:09:16;17.10;;;4.57;;
4921;SDS011;16625;53.624;10.106;2023-04-25T01:11:45;11.93;;;4.13;;
4921;SDS011;16625;53.624;10.106;2023-04-25T01:14:14;16.63;;;4.87;;
4921;SDS011;16625;53.624;10.106;2023-04-25T01:16:41;22.43;;;5.63;;
4921;SDS011;16625;53.624;10.106;2023-04-25T01:19:17;11.80;;;3.83;;
4921;SDS011;16625;53.624;10.106;2023-04-25T01:22:04;18.27;;;5.07;;
4921;SDS011;16625;53.624;10.106;2023-04-25T01:24:37;19.97;;;3.40;;
4921;SDS011;16625;53.624;10.106;2023-04-25T01:27:16;24.00;;;5.23;;
4921;SDS011;16625;53.624;10.106;2023-04-25T01:29:52;16.07;;;3.90;;
4921;SDS011;16625;53.624;10.106;2023-04-25T01:32:22;20.20;;;4.03;;
4921;SDS011;16625;53.624;10.106;2023-04-25T01:35:04;12.80;;;5.37;;
4921;SDS011;16625;53.624;10.106;2023-04-25T01:37:41;16.10;;;3.83;;
4921;SDS011;16625;53.624;10.106;2023-04-25T01:40:09;19.03;;;4.80;;
4921;SDS011;16625;53.624;10.106;2023-04-25T01:42:52;17.47;;;4.27;;
4921;SDS011;16625;53.624;10.106;2023-04-25T01:45:26;12.83;;;3.27;;
4921;SDS011;16625;53.624;10.106;2023-04-25T01:48:03;14.53;;;6.83;;
4921;SDS011;16625;53.624;10.106;2023-04-25T01:50:35;16.50;;;5.03;;
4921;SDS011;16625;53.624;10.106;2023-04-25T01:53:06;23.07;;;5.90;;
4921;SDS011;16625;53.624;10.106;2023-04-25T01:55:38;21.90;;;6.30;;
4921;SDS011;16625;53.624;10.106;2023-04-25T01:58:09;12.10;;;3.60;;
4921;SDS011;16625;53.624;10.106;2023-04-25T02:00:38;11.00;;;3.67;;
4921;SDS011;16625;53.624;10.106;2023-04-25T02:03:11;19.03;;;7.10;;
4921;SDS011;16625;53.624;10.106;2023-04-25T02:05:38;28.50;;;6.10;;
4921;SDS011;16625;53.624;10.106;2023-04-25T02:10:52;19.10;;;5.03;;
4921;SDS011;16625;53.624;10.106;2023-04-25T02:13:25;13.17;;;4.90;;
4921;SDS011;16625;53.624;10.106;2023-04-25T02:15:57;8.20;;;3.63;;
4921;SDS011;16625;53.624;10.106;2023-04-25T02:18:27;30.43;;;5.10;;
4921;SDS011;16625;53.624;10.106;2023-04-25T02:21:00;33.00;;;6.23;;
4921;SDS011;16625;53.624;10.106;2023-04-25T02:23:35;16.50;;;4.40;;
4921;SDS011;16625;53.624;10.106;2023-04-25T02:26:15;25.87;;;4.00;;
4921;SDS011;16625;53.624;10.106;2023-04-25T02:28:44;14.33;;;4.67;;
4921;SDS011;16625;53.624;10.106;2023-04-25T02:31:17;20.87;;;6.40;;
4921;SDS011;16625;53.624;10.106;2023-04-25T02:33:46;24.47;;;6.20;;
4921;SDS011;16625;53.624;10.106;2023-04-25T02:36:13;19.20;;;5.07;;
4921;SDS011;16625;53.624;10.106;2023-04-25T02:38:42;16.40;;;5.07;;
4921;SDS011;16625;53.624;10.106;2023-04-25T02:41:09;19.77;;;5.07;;
4921;SDS011;16625;53.624;10.106;2023-04-25T02:43:42;19.63;;;5.80;;
4921;SDS011;16625;53.624;10.106;2023-04-25T02:46:12;23.73;;;5.00;;
4921;SDS011;16625;53.624;10.106;2023-04-25T02:48:40;22.63;;;4.53;;
4921;SDS011;16625;53.624;10.106;2023-04-25T02:51:11;21.57;;;5.10;;
4921;SDS011;16625;53.624;10.106;2023-04-25T02:53:39;13.23;;;4.50;;
4921;SDS011;16625;53.624;10.106;2023-04-25T02:59:02;19.80;;;5.17;;
4921;SDS011;16625;53.624;10.106;2023-04-25T03:01:38;19.23;;;5.73;;
4921;SDS011;16625;53.624;10.106;2023-04-25T03:04:05;10.53;;;3.70;;
4921;SDS011;16625;53.624;10.106;2023-04-25T03:06:34;8.83;;;4.90;;
4921;SDS011;16625;53.624;10.106;2023-04-25T03:09:04;23.97;;;5.23;;
4921;SDS011;16625;53.624;10.106;2023-04-25T03:11:39;24.37;;;3.63;;
4921;SDS011;16625;53.624;10.106;2023-04-25T03:14:06;26.13;;;4.87;;
4921;SDS011;16625;53.624;10.106;2023-04-25T03:16:33;15.47;;;5.70;;
4921;SDS011;16625;53.624;10.106;2023-04-25T03:19:00;10.63;;;3.50;;
4921;SDS011;16625;53.624;10.106;2023-04-25T03:21:28;6.87;;;3.20;;
4921;SDS011;16625;53.624;10.106;2023-04-25T03:23:59;13.23;;;4.37;;
4921;SDS011;16625;53.624;10.106;2023-04-25T03:26:26;26.10;;;5.37;;
4921;SDS011;16625;53.624;10.106;2023-04-25T03:28:55;25.60;;;5.00;;
4921;SDS011;16625;53.624;10.106;2023-04-25T03:31:26;15.43;;;4.90;;
4921;SDS011;16625;53.624;10.106;2023-04-25T03:33:53;30.17;;;4.57;;
4921;SDS011;16625;53.624;10.106;2023-04-25T03:39:14;26.53;;;4.60;;
4921;SDS011;16625;53.624;10.106;2023-04-25T03:41:43;27.80;;;5.00;;
4921;SDS011;16625;53.624;10.106;2023-04-25T03:44:19;16.37;;;4.63;;
4921;SDS011;16625;53.624;10.106;2023-04-25T03:46:49;16.20;;;4.30;;
4921;SDS011;16625;53.624;10.106;2023-04-25T03:49:17;13.10;;;5.13;;
4921;SDS011;16625;53.624;10.106;2023-04-25T03:51:50;14.57;;;3.80;;
4921;SDS011;16625;53.624;10.106;2023-04-25T03:54:17;15.87;;;5.20;;
4921;SDS011;16625;53.624;10.106;2023-04-25T03:56:46;10.87;;;3.97;;
4921;SDS011;16625;53.624;10.106;2023-04-25T03:59:26;13.97;;;4.40;;
4921;SDS011;16625;53.624;10.106;2023-04-25T04:01:58;18.30;;;4.40;;
4921;SDS011;16625;53.624;10.106;2023-04-25T04:04:37;9.23;;;4.17;;
4921;SDS011;16625;53.624;10.106;2023-04-25T04:07:04;20.70;;;4.60;;
4921;SDS011;16625;53.624;10.106;2023-04-25T04:09:37;11.13;;;4.83;;
4921;SDS011;16625;53.624;10.106;2023-04-25T04:12:06;19.90;;;3.83;;
4921;SDS011;16625;53.624;10.106;2023-04-25T04:14:43;28.77;;;4.97;;
4921;SDS011;16625;53.624;10.106;2023-04-25T04:17:28;19.90;;;4.90;;
4921;SDS011;16625;53.624;10.106;2023-04-25T04:19:57;18.03;;;4.13;;
4921;SDS011;16625;53.624;10.106;2023-04-25T04:22:29;17.17;;;4.87;;
4921;SDS011;16625;53.624;10.106;2023-04-25T04:24:58;16.67;;;5.27;;
4921;SDS011;16625;53.624;10.106;2023-04-25T04:27:41;13.77;;;4.80;;
4921;SDS011;16625;53.624;10.106;2023-04-25T04:30:20;8.97;;;3.80;;
4921;SDS011;16625;53.624;10.106;2023-04-25T04:32:49;16.97;;;3.60;;
4921;SDS011;16625;53.624;10.106;2023-04-25T04:35:20;16.43;;;4.40;;
4921;SDS011;16625;53.624;10.106;2023-04-25T04:37:49;8.67;;;3.97;;
4921;SDS011;16625;53.624;10.106;2023-04-25T04:40:24;7.60;;;4.07;;
4921;SDS011;16625;53.624;10.106;2023-04-25T04:42:55;9.80;;;3.57;;
4921;SDS011;16625;53.624;10.106;2023-04-25T04:45:29;15.50;;;4.60;;
4921;SDS011;16625;53.624;10.106;2023-04-25T04:48:02;13.77;;;4.30;;
4921;SDS011;16625;53.624;10.106;2023-04-25T04:50:30;19.70;;;5.80;;
4921;SDS011;16625;53.624;10.106;2023-04-25T04:52:59;14.67;;;4.20;;
4921;SDS011;16625;53.624;10.106;2023-04-25T04:55:30;9.30;;;4.10;;
4921;SDS011;16625;53.624;10.106;2023-04-25T04:57:59;14.70;;;4.70;;
4921;SDS011;16625;53.624;10.106;2023-04-25T05:00:26;7.90;;;3.97;;
4921;SDS011;16625;53.624;10.106;2023-04-25T05:02:57;10.23;;;3.80;;
4921;SDS011;16625;53.624;10.106;2023-04-25T05:05:35;30.43;;;3.60;;
4921;SDS011;16625;53.624;10.106;2023-04-25T05:08:18;19.70;;;4.50;;
4921;SDS011;16625;53.624;10.106;2023-04-25T05:14:14;17.13;;;4.00;;
4921;SDS011;16625;53.624;10.106;2023-04-25T05:16:56;9.90;;;3.07;;
4921;SDS011;16625;53.624;10.106;2023-04-25T05:19:38;12.00;;;5.47;;
4921;SDS011;16625;53.624;10.106;2023-04-25T05:22:05;12.37;;;3.23;;
4921;SDS011;16625;53.624;10.106;2023-04-25T05:24:32;14.73;;;4.23;;
4921;SDS011;16625;53.624;10.106;2023-04-25T05:27:00;13.23;;;3.93;;
4921;SDS011;16625;53.624;10.106;2023-04-25T05:29:27;20.90;;;3.53;;
4921;SDS011;16625;53.624;10.106;2023-04-25T05:31:54;12.53;;;3.57;;
4921;SDS011;16625;53.624;10.106;2023-04-25T05:34:21;14.00;;;3.13;;
4921;SDS011;16625;53.624;10.106;2023-04-25T05:36:50;11.03;;;3.23;;
4921;SDS011;16625;53.624;10.106;2023-04-25T05:39:16;14.20;;;4.47;;
4921;SDS011;16625;53.624;10.106;2023-04-25T05:41:43;8.20;;;3.73;;
4921;SDS011;16625;53.624;10.106;2023-04-25T05:44:10;11.17;;;4.03;;
4921;SDS011;16625;53.624;10.106;2023-04-25T05:46:37;7.00;;;3.20;;
4921;SDS011;16625;53.624;10.106;2023-04-25T05:49:04;6.40;;;3.27;;
4921;SDS011;16625;53.624;10.106;2023-04-25T05:51:32;7.30;;;3.80;;
4921;SDS011;16625;53.624;10.106;2023-04-25T05:54:00;10.70;;;2.87;;
4921;SDS011;16625;53.624;10.106;2023-04-25T05:56:27;7.43;;;3.03;;
4921;SDS011;16625;53.624;10.106;2023-04-25T05:58:54;11.53;;;3.93;;
4921;SDS011;16625;53.624;10.106;2023-04-25T06:01:21;20.17;;;4.83;;
4921;SDS011;16625;53.624;10.106;2023-04-25T06:03:48;11.17;;;2.97;;
4921;SDS011;16625;53.624;10.106;2023-04-25T06:06:16;16.60;;;3.37;;
4921;SDS011;16625;53.624;10.106;2023-04-25T06:08:45;18.13;;;4.63;;
4921;SDS011;16625;53.624;10.106;2023-04-25T06:11:14;12.50;;;3.93;;
4921;SDS011;16625;53.624;10.106;2023-04-25T06:13:41;8.60;;;4.50;;
4921;SDS011;16625;53.624;10.106;2023-04-25T06:16:07;5.43;;;2.30;;
4921;SDS011;16625;53.624;10.106;2023-04-25T06:18:35;16.07;;;3.33;;
4921;SDS011;16625;53.624;10.106;2023-04-25T06:21:02;12.67;;;4.70;;
4921;SDS011;16625;53.624;10.106;2023-04-25T06:23:29;15.23;;;4.03;;
4921;SDS011;16625;53.624;10.106;2023-04-25T06:25:56;12.43;;;2.90;;
4921;SDS011;16625;53.624;10.106;2023-04-25T06:28:24;14.03;;;4.20;;
4921;SDS011;16625;53.624;10.106;2023-04-25T06:30:51;10.70;;;3.37;;
4921;SDS011;16625;53.624;10.106;2023-04-25T06:33:18;9.93;;;3.60;;
4921;SDS011;16625;53.624;10.106;2023-04-25T06:35:47;16.67;;;3.50;;
4921;SDS011;16625;53.624;10.106;2023-04-25T06:38:14;26.83;;;4.53;;
4921;SDS011;16625;53.624;10.106;2023-04-25T06:40:44;11.00;;;3.50;;
4921;SDS011;16625;53.624;10.106;2023-04-25T06:43:10;25.80;;;4.30;;
4921;SDS011;16625;53.624;10.106;2023-04-25T06:45:39;10.37;;;4.13;;
4921;SDS011;16625;53.624;10.106;2023-04-25T06:48:08;20.93;;;4.20;;
4921;SDS011;16625;53.624;10.106;2023-04-25T06:50:35;15.90;;;3.50;;
4921;SDS011;16625;53.624;10.106;2023-04-25T06:53:02;7.57;;;4.20;;
4921;SDS011;16625;53.624;10.106;2023-04-25T06:55:29;14.77;;;4.63;;
4921;SDS011;16625;53.624;10.106;2023-04-25T06:57:56;13.90;;;3.37;;
4921;SDS011;16625;53.624;10.106;2023-04-25T07:00:23;11.07;;;4.10;;
4921;SDS011;16625;53.624;10.106;2023-04-25T07:05:42;10.50;;;3.27;;
4921;SDS011;16625;53.624;10.106;2023-04-25T07:08:10;17.37;;;5.20;;
4921;SDS011;16625;53.624;10.106;2023-04-25T07:10:38;11.13;;;3.67;;
4921;SDS011;16625;53.624;10.106;2023-04-25T07:13:05;8.33;;;3.63;;
4921;SDS011;16625;53.624;10.106;2023-04-25T07:15:32;9.57;;;3.10;;
4921;SDS011;16625;53.624;10.106;2023-04-25T07:17:59;9.80;;;2.77;;
4921;SDS011;16625;53.624;10.106;2023-04-25T07:20:30;14.67;;;4.10;;
4921;SDS011;16625;53.624;10.106;2023-04-25T07:23:08;9.10;;;3.40;;
4921;SDS011;16625;53.624;10.106;2023-04-25T07:25:36;8.53;;;3.30;;
4921;SDS011;16625;53.624;10.106;2023-04-25T07:28:03;10.80;;;3.03;;
4921;SDS011;16625;53.624;10.106;2023-04-25T07:30:47;7.23;;;2.97;;
4921;SDS011;16625;53.624;10.106;2023-04-25T07:46:56;17.03;;;3.87;;
4921;SDS011;16625;53.624;10.106;2023-04-25T07:50:20;8.83;;;3.67;;
4921;SDS011;16625;53.624;10.106;2023-04-25T07:59:15;8.80;;;3.53;;
4921;SDS011;16625;53.624;10.106;2023-04-25T08:01:42;5.70;;;3.70;;
4921;SDS011;16625;53.624;10.106;2023-04-25T08:04:09;4.40;;;3.00;;
4921;SDS011;16625;53.624;10.106;2023-04-25T08:06:36;4.07;;;2.53;;
4921;SDS011;16625;53.624;10.106;2023-04-25T08:09:03;8.90;;;3.30;;
4921;SDS011;16625;53.624;10.106;2023-04-25T08:11:30;14.30;;;4.00;;
4921;SDS011;16625;53.624;10.106;2023-04-25T08:13:59;25.20;;;4.37;;
4921;SDS011;16625;53.624;10.106;2023-04-25T08:16:26;7.90;;;3.20;;
4921;SDS011;16625;53.624;10.106;2023-04-25T08:18:56;20.23;;;4.40;;
4921;SDS011;16625;53.624;10.106;2023-04-25T08:21:22;5.93;;;3.27;;
4921;SDS011;16625;53.624;10.106;2023-04-25T08:23:50;2.90;;;2.10;;
4921;SDS011;16625;53.624;10.106;2023-04-25T08:26:17;5.87;;;3.80;;
4921;SDS011;16625;53.624;10.106;2023-04-25T08:28:45;7.43;;;2.47;;
4921;SDS011;16625;53.624;10.106;2023-04-25T08:31:14;5.43;;;2.57;;
4921;SDS011;16625;53.624;10.106;2023-04-25T08:33:41;10.27;;;2.50;;
4921;SDS011;16625;53.624;10.106;2023-04-25T08:36:08;8.53;;;2.33;;
4921;SDS011;16625;53.624;10.106;2023-04-25T08:38:35;8.47;;;2.57;;
4921;SDS011;16625;53.624;10.106;2023-04-25T08:41:02;10.30;;;3.43;;
4921;SDS011;16625;53.624;10.106;2023-04-25T08:43:30;5.20;;;2.17;;
4921;SDS011;16625;53.624;10.106;2023-04-25T08:45:58;5.23;;;3.23;;
4921;SDS011;16625;53.624;10.106;2023-04-25T08:48:28;8.53;;;3.10;;
4921;SDS011;16625;53.624;10.106;2023-04-25T08:50:55;6.23;;;2.73;;
4921;SDS011;16625;53.624;10.106;2023-04-25T08:53:25;3.80;;;1.83;;
4921;SDS011;16625;53.624;10.106;2023-04-25T08:55:53;10.37;;;3.80;;
4921;SDS011;16625;53.624;10.106;2023-04-25T08:58:21;19.20;;;3.67;;
4921;SDS011;16625;53.624;10.106;2023-04-25T09:00:49;19.93;;;3.37;;
4921;SDS011;16625;53.624;10.106;2023-04-25T09:03:16;2.87;;;2.60;;
4921;SDS011;16625;53.624;10.106;2023-04-25T09:05:45;5.90;;;2.80;;
4921;SDS011;16625;53.624;10.106;2023-04-25T09:08:12;7.07;;;3.30;;
4921;SDS011;16625;53.624;10.106;2023-04-25T09:10:40;13.83;;;3.40;;
4921;SDS011;16625;53.624;10.106;2023-04-25T09:13:07;10.93;;;2.60;;
4921;SDS011;16625;53.624;10.106;2023-04-25T09:15:46;8.60;;;3.87;;
4921;SDS011;16625;53.624;10.106;2023-04-25T09:18:14;9.73;;;2.80;;
4921;SDS011;16625;53.624;10.106;2023-04-25T09:20:50;7.07;;;3.33;;
4921;SDS011;16625;53.624;10.106;2023-04-25T09:23:18;8.00;;;3.43;;
4921;SDS011;16625;53.624;10.106;2023-04-25T09:25:47;7.50;;;3.30;;
4921;SDS011;16625;53.624;10.106;2023-04-25T09:28:15;8.97;;;2.50;;
4921;SDS011;16625;53.624;10.106;2023-04-25T09:30:42;7.80;;;3.43;;
4921;SDS011;16625;53.624;10.106;2023-04-25T09:33:09;8.70;;;3.23;;
4921;SDS011;16625;53.624;10.106;2023-04-25T09:35:38;13.70;;;2.90;;
4921;SDS011;16625;53.624;10.106;2023-04-25T09:38:11;10.00;;;2.67;;
4921;SDS011;16625;53.624;10.106;2023-04-25T09:40:39;8.17;;;2.97;;
4921;SDS011;16625;53.624;10.106;2023-04-25T09:43:10;7.73;;;2.03;;
4921;SDS011;16625;53.624;10.106;2023-04-25T09:45:44;16.20;;;3.00;;
4921;SDS011;16625;53.624;10.106;2023-04-25T09:48:12;7.23;;;2.47;;
4921;SDS011;16625;53.624;10.106;2023-04-25T09:50:43;12.53;;;3.27;;
4921;SDS011;16625;53.624;10.106;2023-04-25T09:53:12;9.57;;;3.07;;
4921;SDS011;16625;53.624;10.106;2023-04-25T09:55:38;14.73;;;2.30;;
4921;SDS011;16625;53.624;10.106;2023-04-25T09:58:08;3.43;;;2.10;;
4921;SDS011;16625;53.624;10.106;2023-04-25T10:00:37;9.80;;;2.87;;
4921;SDS011;16625;53.624;10.106;2023-04-25T10:03:04;4.80;;;2.93;;
4921;SDS011;16625;53.624;10.106;2023-04-25T10:05:32;7.20;;;2.57;;
4921;SDS011;16625;53.624;10.106;2023-04-25T10:08:03;6.93;;;2.33;;
4921;SDS011;16625;53.624;10.106;2023-04-25T10:10:33;4.57;;;2.53;;
4921;SDS011;16625;53.624;10.106;2023-04-25T10:13:03;8.20;;;3.47;;
4921;SDS011;16625;53.624;10.106;2023-04-25T10:15:31;13.30;;;3.20;;
4921;SDS011;16625;53.624;10.106;2023-04-25T10:18:01;7.17;;;3.47;;
4921;SDS011;16625;53.624;10.106;2023-04-25T10:20:28;14.03;;;3.13;;
4921;SDS011;16625;53.624;10.106;2023-04-25T10:22:57;6.10;;;2.93;;
4921;SDS011;16625;53.624;10.106;2023-04-25T10:25:30;6.93;;;2.47;;
4921;SDS011;16625;53.624;10.106;2023-04-25T10:27:59;4.40;;;1.80;;
4921;SDS011;16625;53.624;10.106;2023-04-25T10:30:27;5.20;;;3.07;;
4921;SDS011;16625;53.624;10.106;2023-04-25T10:32:54;5.27;;;2.00;;
4921;SDS011;16625;53.624;10.106;2023-04-25T10:35:24;12.83;;;2.30;;
4921;SDS011;16625;53.624;10.106;2023-04-25T10:38:02;1.70;;;1.60;;
4921;SDS011;16625;53.624;10.106;2023-04-25T10:40:33;12.43;;;2.40;;
4921;SDS011;16625;53.624;10.106;2023-04-25T10:46:15;2.90;;;1.63;;
4921;SDS011;16625;53.624;10.106;2023-04-25T10:48:47;8.73;;;2.40;;
4921;SDS011;16625;53.624;10.106;2023-04-25T10:51:16;13.10;;;3.33;;
4921;SDS011;16625;53.624;10.106;2023-04-25T10:53:45;4.37;;;1.93;;
4921;SDS011;16625;53.624;10.106;2023-04-25T10:56:18;3.97;;;2.37;;
4921;SDS011;16625;53.624;10.106;2023-04-25T10:58:46;8.20;;;3.87;;
4921;SDS011;16625;53.624;10.106;2023-04-25T11:01:14;9.60;;;3.73;;
4921;SDS011;16625;53.624;10.106;2023-04-25T11:03:42;11.50;;;3.53;;
4921;SDS011;16625;53.624;10.106;2023-04-25T11:06:14;4.17;;;2.10;;
4921;SDS011;16625;53.624;10.106;2023-04-25T11:08:48;10.77;;;2.33;;
4921;SDS011;16625;53.624;10.106;2023-04-25T11:11:18;18.50;;;2.70;;
4921;SDS011;16625;53.624;10.106;2023-04-25T11:13:47;5.73;;;2.90;;
4921;SDS011;16625;53.624;10.106;2023-04-25T11:16:15;2.93;;;1.97;;
4921;SDS011;16625;53.624;10.106;2023-04-25T11:18:42;8.13;;;2.80;;
4921;SDS011;16625;53.624;10.106;2023-04-25T11:21:10;5.17;;;1.97;;
4921;SDS011;16625;53.624;10.106;2023-04-25T11:23:37;3.97;;;1.70;;
4921;SDS011;16625;53.624;10.106;2023-04-25T11:26:04;8.03;;;2.03;;
4921;SDS011;16625;53.624;10.106;2023-04-25T11:28:32;4.87;;;2.17;;
4921;SDS011;16625;53.624;10.106;2023-04-25T11:30:59;3.47;;;2.13;;
4921;SDS011;16625;53.624;10.106;2023-04-25T11:33:26;7.10;;;2.00;;
4921;SDS011;16625;53.624;10.106;2023-04-25T11:35:53;7.23;;;2.37;;
4921;SDS011;16625;53.624;10.106;2023-04-25T11:38:21;4.03;;;2.77;;
4921;SDS011;16625;53.624;10.106;2023-04-25T11:40:51;2.00;;;1.70;;
4921;SDS011;16625;53.624;10.106;2023-04-25T11:43:19;9.93;;;2.10;;
4921;SDS011;16625;53.624;10.106;2023-04-25T11:45:49;10.87;;;2.30;;
4921;SDS011;16625;53.624;10.106;2023-04-25T11:48:17;6.90;;;2.20;;
4921;SDS011;16625;53.624;10.106;2023-04-25T11:50:44;2.80;;;1.73;;
4921;SDS011;16625;53.624;10.106;2023-04-25T11:53:11;4.50;;;2.80;;
4921;SDS011;16625;53.624;10.106;2023-04-25T11:55:38;7.30;;;2.30;;
4921;SDS011;16625;53.624;10.106;2023-04-25T11:58:05;5.77;;;1.57;;
4921;SDS011;16625;53.624;10.106;2023-04-25T12:00:33;5.40;;;2.40;;
4921;SDS011;16625;53.624;10.106;2023-04-25T12:03:03;7.43;;;2.40;;
4921;SDS011;16625;53.624;10.106;2023-04-25T12:05:30;3.63;;;2.10;;
4921;SDS011;16625;53.624;10.106;2023-04-25T12:07:58;3.90;;;2.23;;
4921;SDS011;16625;53.624;10.106;2023-04-25T12:10:37;4.07;;;1.83;;
4921;SDS011;16625;53.624;10.106;2023-04-25T12:13:17;9.47;;;1.60;;
4921;SDS011;16625;53.624;10.106;2023-04-25T12:15:45;5.17;;;1.80;;
4921;SDS011;16625;53.624;10.106;2023-04-25T12:18:13;2.90;;;1.50;;
4921;SDS011;16625;53.624;10.106;2023-04-25T12:20:41;7.00;;;2.20;;
4921;SDS011;16625;53.624;10.106;2023-04-25T12:23:08;8.17;;;2.10;;
4921;SDS011;16625;53.624;10.106;2023-04-25T12:25:37;7.43;;;2.27;;
4921;SDS011;16625;53.624;10.106;2023-04-25T12:28:14;4.57;;;1.63;;
4921;SDS011;16625;53.624;10.106;2023-04-25T12:30:54;6.13;;;1.93;;
4921;SDS011;16625;53.624;10.106;2023-04-25T12:33:23;2.87;;;1.90;;
4921;SDS011;16625;53.624;10.106;2023-04-25T12:35:52;3.23;;;1.83;;
4921;SDS011;16625;53.624;10.106;2023-04-25T12:38:22;4.40;;;2.30;;
4921;SDS011;16625;53.624;10.106;2023-04-25T12:40:50;7.53;;;2.63;;
4921;SDS011;16625;53.624;10.106;2023-04-25T12:43:17;6.67;;;1.90;;
4921;SDS011;16625;53.624;10.106;2023-04-25T12:45:44;3.10;;;2.20;;
4921;SDS011;16625;53.624;10.106;2023-04-25T12:48:13;6.13;;;2.53;;
4921;SDS011;16625;53.624;10.106;2023-04-25T12:50:41;8.57;;;2.40;;
4921;SDS011;16625;53.624;10.106;2023-04-25T12:53:08;4.70;;;2.20;;
4921;SDS011;16625;53.624;10.106;2023-04-25T12:55:36;6.87;;;1.97;;
4921;SDS011;16625;53.624;10.106;2023-04-25T12:58:03;13.93;;;2.57;;
4921;SDS011;16625;53.624;10.106;2023-04-25T13:00:30;5.17;;;2.30;;
4921;SDS011;16625;53.624;10.106;2023-04-25T13:02:57;3.30;;;1.70;;
4921;SDS011;16625;53.624;10.106;2023-04-25T13:05:25;4.57;;;2.20;;
4921;SDS011;16625;53.624;10.106;2023-04-25T13:07:54;4.23;;;2.83;;
4921;SDS011;16625;53.624;10.106;2023-04-25T13:10:20;7.57;;;2.90;;
4921;SDS011;16625;53.624;10.106;2023-04-25T13:12:49;5.87;;;2.13;;
4921;SDS011;16625;53.624;10.106;2023-04-25T13:15:16;2.30;;;1.80;;
4921;SDS011;16625;53.624;10.106;2023-04-25T13:17:43;5.50;;;2.77;;
4921;SDS011;16625;53.624;10.106;2023-04-25T13:20:10;6.43;;;2.47;;
4921;SDS011;16625;53.624;10.106;2023-04-25T13:22:38;6.47;;;2.03;;
4921;SDS011;16625;53.624;10.106;2023-04-25T13:25:07;6.70;;;2.20;;
4921;SDS011;16625;53.624;10.106;2023-04-25T13:27:34;6.83;;;2.87;;
4921;SDS011;16625;53.624;10.106;2023-04-25T13:30:03;15.43;;;2.73;;
4921;SDS011;16625;53.624;10.106;2023-04-25T13:32:33;4.47;;;3.00;;
4921;SDS011;16625;53.624;10.106;2023-04-25T13:35:01;7.93;;;2.37;;
4921;SDS011;16625;53.624;10.106;2023-04-25T13:37:28;9.30;;;2.30;;
4921;SDS011;16625;53.624;10.106;2023-04-25T13:39:57;9.83;;;2.77;;
4921;SDS011;16625;53.624;10.106;2023-04-25T13:42:26;3.60;;;2.20;;
4921;SDS011;16625;53.624;10.106;2023-04-25T13:44:53;3.10;;;2.00;;
4921;SDS011;16625;53.624;10.106;2023-04-25T13:47:20;5.80;;;2.27;;
4921;SDS011;16625;53.624;10.106;2023-04-25T13:49:47;8.53;;;3.00;;
4921;SDS011;16625;53.624;10.106;2023-04-25T13:52:14;5.00;;;2.33;;
4921;SDS011;16625;53.624;10.106;2023-04-25T13:54:41;7.40;;;2.50;;
4921;SDS011;16625;53.624;10.106;2023-04-25T13:57:08;5.93;;;1.97;;
4921;SDS011;16625;53.624;10.106;2023-04-25T13:59:37;11.90;;;2.37;;
4921;SDS011;16625;53.624;10.106;2023-04-25T14:02:04;4.20;;;2.90;;
4921;SDS011;16625;53.624;10.106;2023-04-25T14:04:31;3.70;;;2.47;;
4921;SDS011;16625;53.624;10.106;2023-04-25T14:06:58;5.53;;;2.40;;
4921;SDS011;16625;53.624;10.106;2023-04-25T14:09:25;7.50;;;2.20;;
4921;SDS011;16625;53.624;10.106;2023-04-25T14:11:52;6.77;;;2.43;;
4921;SDS011;16625;53.624;10.106;2023-04-25T14:14:19;8.47;;;3.27;;
4921;SDS011;16625;53.624;10.106;2023-04-25T14:16:47;3.77;;;2.37;;
4921;SDS011;16625;53.624;10.106;2023-04-25T14:19:15;10.37;;;2.60;;
4921;SDS011;16625;53.624;10.106;2023-04-25T14:21:43;4.50;;;2.20;;
4921;SDS011;16625;53.624;10.106;2023-04-25T14:24:10;18.33;;;3.03;;
4921;SDS011;16625;53.624;10.106;2023-04-25T14:26:37;11.13;;;2.47;;
4921;SDS011;16625;53.624;10.106;2023-04-25T14:29:04;4.63;;;2.03;;
4921;SDS011;16625;53.624;10.106;2023-04-25T14:31:32;9.90;;;2.30;;
4921;SDS011;16625;53.624;10.106;2023-04-25T14:34:00;7.20;;;2.10;;
4921;SDS011;16625;53.624;10.106;2023-04-25T14:36:28;5.77;;;2.03;;
4921;SDS011;16625;53.624;10.106;2023-04-25T14:38:55;3.47;;;2.47;;
4921;SDS011;16625;53.624;10.106;2023-04-25T14:41:24;6.23;;;2.23;;
4921;SDS011;16625;53.624;10.106;2023-04-25T14:43:51;8.37;;;2.80;;
4921;SDS011;16625;53.624;10.106;2023-04-25T14:46:19;5.50;;;2.43;;
4921;SDS011;16625;53.624;10.106;2023-04-25T14:48:47;5.57;;;2.07;;
4921;SDS011;16625;53.624;10.106;2023-04-25T14:51:15;5.43;;;2.13;;
4921;SDS011;16625;53.624;10.106;2023-04-25T14:53:42;11.73;;;2.90;;
4921;SDS011;16625;53.624;10.106;2023-04-25T14:56:09;5.00;;;2.50;;
4921;SDS011;16625;53.624;10.106;2023-04-25T14:58:36;5.57;;;2.87;;
4921;SDS011;16625;53.624;10.106;2023-04-25T15:01:03;3.70;;;2.40;;
4921;SDS011;16625;53.624;10.106;2023-04-25T15:03:31;16.13;;;3.17;;
4921;SDS011;16625;53.624;10.106;2023-04-25T15:05:58;10.10;;;2.43;;
4921;SDS011;16625;53.624;10.106;2023-04-25T15:08:26;8.13;;;3.27;;
4921;SDS011;16625;53.624;10.106;2023-04-25T15:10:53;25.73;;;2.50;;
4921;SDS011;16625;53.624;10.106;2023-04-25T15:13:20;5.47;;;2.47;;
4921;SDS011;16625;53.624;10.106;2023-04-25T15:15:47;3.93;;;2.30;;
4921;SDS011;16625;53.624;10.106;2023-04-25T15:18:16;8.43;;;2.90;;
4921;SDS011;16625;53.624;10.106;2023-04-25T15:20:43;6.80;;;2.63;;
4921;SDS011;16625;53.624;10.106;2023-04-25T15:23:10;6.13;;;2.30;;
4921;SDS011;16625;53.624;10.106;2023-04-25T15:25:41;5.37;;;1.63;;
4921;SDS011;16625;53.624;10.106;2023-04-25T15:28:08;7.50;;;2.17;;
4921;SDS011;16625;53.624;10.106;2023-04-25T15:30:35;5.30;;;2.57;;
4921;SDS011;16625;53.624;10.106;2023-04-25T15:33:02;8.70;;;2.40;;